createdAt,value
2022-10-15T00:00:40.372Z,50.92
2022-10-15T00:03:07.417Z,49.35
2022-10-15T00:08:03.015Z,51.13
2022-10-15T00:10:29.755Z,54.17
2022-10-15T00:12:56.652Z,52.10
2022-10-15T00:17:49.960Z,51.67
2022-10-15T00:20:17.248Z,50.95
2022-10-15T00:22:44.018Z,52.92
2022-10-15T00:25:10.779Z,55.05
2022-10-15T00:27:38.190Z,53.25
2022-10-15T00:30:06.271Z,52.55
2022-10-15T00:32:33.485Z,50.35
2022-10-15T00:35:00.128Z,51.08
2022-10-15T00:37:26.817Z,56.33
2022-10-15T00:39:53.460Z,55.13
2022-10-15T00:42:20.367Z,56.05
2022-10-15T00:44:53.695Z,55.65
2022-10-15T00:47:46.102Z,57.80
2022-10-15T00:50:16.841Z,54.28
2022-10-15T00:52:56.351Z,61.92
2022-10-15T00:55:27.068Z,53.35
2022-10-15T00:57:55.694Z,57.90
2022-10-15T01:00:22.730Z,56.72
2022-10-15T01:02:49.400Z,54.22
2022-10-15T01:05:18.138Z,61.80
2022-10-15T01:07:44.828Z,62.25
2022-10-15T01:10:12.393Z,64.65
2022-10-15T01:12:53.311Z,71.53
2022-10-15T01:15:26.389Z,61.30
2022-10-15T01:18:02.047Z,66.95
2022-10-15T01:20:52.471Z,62.17
2022-10-15T01:23:36.939Z,59.80
2022-10-15T01:26:25.790Z,68.15
2022-10-15T01:29:29.347Z,70.45
2022-10-15T01:32:09.004Z,66.50
2022-10-15T01:34:44.507Z,70.47
2022-10-15T01:37:42.123Z,70.18
2022-10-15T01:40:17.801Z,66.18
2022-10-15T01:42:48.530Z,71.90
2022-10-15T01:45:22.024Z,72.05
2022-10-15T01:48:10.496Z,77.32
2022-10-15T01:50:44.308Z,77.93
2022-10-15T01:53:12.991Z,80.88
2022-10-15T01:55:43.115Z,70.82
2022-10-15T01:58:12.534Z,80.03
2022-10-15T02:00:42.163Z,90.45
2022-10-15T02:03:09.763Z,86.53
2022-10-15T02:05:44.953Z,87.85
2022-10-15T02:08:17.603Z,84.63
2022-10-15T02:10:53.615Z,89.40
2022-10-15T02:13:26.293Z,80.97
2022-10-15T02:16:13.975Z,83.68
2022-10-15T02:19:05.601Z,90.85
2022-10-15T02:21:45.530Z,84.80
2022-10-15T02:24:23.835Z,77.10
2022-10-15T02:26:53.661Z,80.63
2022-10-15T02:29:23.380Z,82.53
2022-10-15T02:31:51.090Z,79.40
2022-10-15T02:34:21.900Z,77.90
2022-10-15T02:36:49.586Z,72.20
2022-10-15T02:39:21.940Z,75.30
2022-10-15T02:41:49.837Z,70.07
2022-10-15T02:44:16.827Z,71.53
2022-10-15T02:49:11.325Z,69.22
2022-10-15T02:51:38.021Z,70.60
2022-10-15T02:54:07.003Z,70.07
2022-10-15T02:56:34.186Z,68.47
2022-10-15T02:59:01.743Z,75.07
2022-10-15T03:01:28.929Z,80.68
2022-10-15T03:03:55.875Z,70.38
2022-10-15T03:06:22.615Z,77.05
2022-10-15T03:08:49.632Z,73.85
2022-10-15T03:11:16.891Z,75.18
2022-10-15T03:13:43.592Z,78.90
2022-10-15T03:16:11.727Z,78.45
2022-10-15T03:18:41.045Z,75.47
2022-10-15T03:21:09.813Z,77.55
2022-10-15T03:23:36.709Z,76.53
2022-10-15T03:26:09.506Z,79.32
2022-10-15T03:28:36.274Z,81.55
2022-10-15T03:33:29.967Z,90.38
2022-10-15T03:35:57.464Z,74.38
2022-10-15T03:38:24.805Z,77.70
2022-10-15T03:40:52.951Z,71.65
2022-10-15T03:43:42.858Z,78.10
2022-10-15T03:46:10.552Z,72.25
2022-10-15T03:48:41.523Z,96.18
2022-10-15T03:51:10.567Z,81.97
2022-10-15T03:53:38.290Z,82.97
2022-10-15T03:56:06.456Z,89.88
2022-10-15T03:58:36.949Z,85.53
2022-10-15T04:01:24.223Z,79.82
2022-10-15T04:03:54.224Z,86.38
2022-10-15T04:06:25.081Z,84.38
2022-10-15T04:11:26.020Z,87.07
2022-10-15T04:14:01.266Z,81.13
2022-10-15T04:16:29.223Z,84.32
2022-10-15T04:18:58.597Z,88.32
2022-10-15T04:21:26.007Z,83.53
2022-10-15T04:23:57.932Z,95.40
2022-10-15T04:26:30.320Z,87.45
2022-10-15T04:28:59.779Z,82.30
2022-10-15T04:31:27.687Z,81.38
2022-10-15T04:33:54.824Z,82.93
2022-10-15T04:36:21.449Z,86.13
2022-10-15T04:39:01.648Z,94.55
2022-10-15T04:41:40.895Z,79.32
2022-10-15T04:44:10.553Z,82.97
2022-10-15T04:46:38.187Z,86.43
2022-10-15T04:49:23.565Z,81.32
2022-10-15T04:51:50.708Z,85.00
2022-10-15T04:54:22.075Z,79.53
2022-10-15T04:56:58.215Z,80.75
2022-10-15T04:59:25.232Z,80.47
2022-10-15T05:02:18.365Z,84.60
2022-10-15T05:04:49.810Z,74.65
2022-10-15T05:07:17.224Z,78.10
2022-10-15T05:09:46.481Z,74.93
2022-10-15T05:12:13.770Z,76.82
2022-10-15T05:14:41.795Z,69.22
2022-10-15T05:17:15.037Z,74.10
2022-10-15T05:19:43.280Z,71.80
2022-10-15T05:22:17.014Z,69.07
2022-10-15T05:24:50.604Z,74.25
2022-10-15T05:27:25.475Z,72.05
2022-10-15T05:29:52.152Z,81.75
2022-10-15T05:34:51.330Z,90.22
2022-10-15T05:37:18.180Z,92.13
2022-10-15T05:39:44.814Z,111.90
2022-10-15T05:42:11.904Z,111.05
2022-10-15T05:44:41.851Z,122.15
2022-10-15T05:47:11.801Z,108.72
2022-10-15T05:49:39.084Z,130.65
2022-10-15T05:52:21.488Z,111.00
2022-10-15T05:55:11.583Z,111.93
2022-10-15T05:57:38.198Z,112.43
2022-10-15T06:00:06.609Z,109.10
2022-10-15T06:02:38.769Z,105.05
2022-10-15T06:05:06.568Z,95.85
2022-10-15T06:07:33.179Z,101.45
2022-10-15T06:10:03.375Z,88.88
2022-10-15T06:12:33.949Z,98.05
2022-10-15T06:17:27.193Z,101.13
2022-10-15T06:19:53.815Z,95.35
2022-10-15T06:22:20.444Z,103.45
2022-10-15T06:24:47.519Z,92.70
2022-10-15T06:27:14.672Z,94.75
2022-10-15T06:29:41.345Z,95.53
2022-10-15T06:32:11.948Z,103.88
2022-10-15T06:34:43.145Z,99.10
2022-10-15T06:37:09.944Z,96.63
2022-10-15T06:39:36.631Z,94.40
2022-10-15T06:42:03.735Z,97.05
2022-10-15T06:44:40.445Z,93.05
2022-10-15T06:47:07.565Z,98.00
2022-10-15T06:49:34.692Z,98.53
2022-10-15T06:52:03.606Z,108.03
2022-10-15T06:54:30.751Z,104.45
2022-10-15T06:56:57.433Z,111.45
2022-10-15T06:59:24.093Z,104.60
2022-10-15T07:01:51.185Z,108.05
2022-10-15T07:04:17.813Z,97.82
2022-10-15T07:06:44.868Z,93.20
2022-10-15T07:09:11.541Z,97.20
2022-10-15T07:11:38.183Z,80.82
2022-10-15T07:14:05.243Z,89.05
2022-10-15T07:16:31.920Z,92.20
2022-10-15T07:18:58.654Z,85.63
2022-10-15T07:21:25.342Z,80.63
2022-10-15T07:23:52.001Z,77.07
2022-10-15T07:26:19.035Z,71.63
2022-10-15T07:28:45.721Z,75.30
2022-10-15T07:31:12.832Z,67.63
2022-10-15T07:33:40.023Z,69.05
2022-10-15T07:36:09.318Z,63.47
2022-10-15T07:38:36.788Z,63.35
2022-10-15T07:41:04.787Z,59.50
2022-10-15T07:43:32.481Z,53.80
2022-10-15T07:45:59.156Z,65.20
2022-10-15T07:48:25.903Z,55.20
2022-10-15T07:51:04.248Z,51.35
2022-10-15T07:53:31.437Z,52.30
2022-10-15T07:56:07.894Z,53.88
2022-10-15T07:58:35.815Z,48.40
2022-10-15T08:01:03.889Z,49.10
2022-10-15T08:03:31.043Z,45.20
2022-10-15T08:06:01.016Z,46.47
2022-10-15T08:08:28.796Z,43.50
2022-10-15T08:10:55.980Z,39.08
2022-10-15T08:15:50.607Z,37.67
2022-10-15T08:20:43.829Z,35.40
2022-10-15T08:23:17.098Z,39.80
2022-10-15T08:28:12.382Z,34.55
2022-10-15T08:30:39.104Z,37.92
2022-10-15T08:33:12.416Z,30.67
2022-10-15T08:35:43.509Z,28.05
2022-10-15T08:38:16.261Z,32.95
2022-10-15T08:40:51.732Z,31.00
2022-10-15T08:43:41.602Z,26.38
2022-10-15T08:46:22.479Z,29.70
2022-10-15T08:48:54.999Z,28.13
2022-10-15T08:51:28.621Z,28.35
2022-10-15T08:53:59.400Z,31.77
2022-10-15T08:56:39.421Z,34.90
2022-10-15T08:59:21.005Z,27.67
2022-10-15T09:01:50.871Z,28.58
2022-10-15T09:04:20.387Z,26.38
2022-10-15T09:06:49.065Z,31.83
2022-10-15T09:09:48.007Z,25.17
2022-10-15T09:12:42.300Z,22.55
2022-10-15T09:15:23.935Z,24.50
2022-10-15T09:17:55.776Z,21.70
2022-10-15T09:20:34.535Z,21.80
2022-10-15T09:23:01.481Z,20.58
2022-10-15T09:25:36.432Z,21.42
2022-10-15T09:28:11.337Z,20.30
2022-10-15T09:30:45.303Z,23.88
2022-10-15T09:33:36.689Z,24.30
2022-10-15T09:36:28.577Z,22.92
2022-10-15T09:39:20.950Z,23.13
2022-10-15T09:42:14.816Z,23.55
2022-10-15T09:44:43.801Z,20.20
2022-10-15T09:47:29.762Z,22.98
2022-10-15T09:50:04.925Z,21.48
2022-10-15T09:52:55.509Z,24.85
2022-10-15T09:55:46.437Z,25.02
2022-10-15T09:58:23.241Z,19.70
2022-10-15T10:00:54.535Z,23.00
2022-10-15T10:03:24.430Z,25.38
2022-10-15T10:05:58.532Z,24.42
2022-10-15T10:08:29.165Z,28.20
2022-10-15T10:11:04.327Z,28.60
2022-10-15T10:13:41.094Z,23.40
2022-10-15T10:16:12.582Z,27.55
2022-10-15T10:18:39.508Z,27.77
2022-10-15T10:21:30.713Z,28.48
2022-10-15T10:24:18.224Z,27.92
2022-10-15T10:26:46.359Z,26.17
2022-10-15T10:29:32.818Z,29.95
2022-10-15T10:32:00.530Z,28.20
2022-10-15T10:34:30.439Z,28.90
2022-10-15T10:37:02.907Z,30.60
2022-10-15T10:39:32.307Z,26.40
2022-10-15T10:42:07.715Z,22.95
2022-10-15T10:44:36.639Z,21.42
2022-10-15T10:47:22.624Z,21.23
2022-10-15T10:49:55.496Z,22.75
2022-10-15T10:52:24.311Z,19.50
2022-10-15T10:55:18.307Z,21.55
2022-10-15T10:57:52.836Z,14.43
2022-10-15T11:00:29.931Z,18.30
2022-10-15T11:02:57.449Z,14.65
2022-10-15T11:05:27.855Z,14.93
2022-10-15T11:08:18.762Z,13.73
2022-10-15T11:10:59.970Z,14.23
2022-10-15T11:13:55.106Z,11.32
2022-10-15T11:16:33.277Z,14.65
2022-10-15T11:22:31.595Z,12.52
2022-10-15T11:25:08.234Z,13.68
2022-10-15T11:27:48.919Z,12.00
2022-10-15T11:30:40.070Z,11.35
2022-10-15T11:33:34.686Z,14.52
2022-10-15T11:36:14.234Z,13.00
2022-10-15T11:38:51.268Z,11.55
2022-10-15T11:41:47.905Z,10.27
2022-10-15T11:44:32.863Z,11.60
2022-10-15T11:47:03.318Z,10.20
2022-10-15T11:50:06.738Z,13.18
2022-10-15T11:53:02.370Z,13.63
2022-10-15T11:55:37.121Z,9.85
2022-10-15T11:58:16.809Z,10.70
2022-10-15T12:00:50.084Z,10.32
2022-10-15T12:03:25.032Z,11.88
2022-10-15T12:06:13.060Z,9.50
2022-10-15T12:08:43.012Z,9.95
2022-10-15T12:11:39.609Z,11.35
2022-10-15T12:14:30.188Z,9.10
2022-10-15T12:17:25.253Z,10.43
2022-10-15T12:19:55.996Z,8.50
2022-10-15T12:22:39.355Z,9.55
2022-10-15T12:25:07.059Z,8.45
2022-10-15T12:27:36.332Z,8.98
2022-10-15T12:30:03.374Z,9.55
2022-10-15T12:32:37.369Z,9.57
2022-10-15T12:35:16.392Z,8.07
2022-10-15T12:37:46.070Z,9.30
2022-10-15T12:40:30.923Z,9.07
2022-10-15T12:43:03.372Z,8.10
2022-10-15T12:45:48.709Z,9.52
2022-10-15T12:48:15.303Z,9.35
2022-10-15T12:50:43.085Z,10.07
2022-10-15T12:56:15.159Z,10.68
2022-10-15T12:58:49.077Z,12.77
2022-10-15T13:01:15.729Z,14.27
2022-10-15T13:03:56.070Z,12.38
2022-10-15T13:06:22.783Z,15.38
2022-10-15T13:11:29.108Z,10.98
2022-10-15T13:14:01.212Z,11.38
2022-10-15T13:16:29.152Z,12.57
2022-10-15T13:18:57.324Z,11.30
2022-10-15T13:21:50.123Z,11.63
2022-10-15T13:24:25.084Z,9.55
2022-10-15T13:26:53.382Z,10.95
2022-10-15T13:29:25.565Z,11.48
2022-10-15T13:31:54.575Z,12.43
2022-10-15T13:34:34.699Z,12.02
2022-10-15T13:37:03.940Z,11.45
2022-10-15T13:39:36.819Z,11.50
2022-10-15T13:42:14.508Z,11.32
2022-10-15T13:44:41.495Z,10.75
2022-10-15T13:47:35.221Z,12.15
2022-10-15T13:50:20.655Z,11.68
2022-10-15T13:53:08.423Z,11.77
2022-10-15T13:55:38.904Z,10.82
2022-10-15T13:58:27.978Z,10.05
2022-10-15T14:01:02.589Z,9.98
2022-10-15T14:03:31.696Z,10.30
2022-10-15T14:06:14.455Z,10.32
2022-10-15T14:08:41.115Z,11.10
2022-10-15T14:13:47.967Z,10.50
2022-10-15T14:16:23.012Z,10.15
2022-10-15T14:18:52.955Z,11.63
2022-10-15T14:21:28.693Z,7.75
2022-10-15T14:24:03.999Z,8.70
2022-10-15T14:26:31.812Z,8.40
2022-10-15T14:28:58.689Z,8.73
2022-10-15T14:31:40.957Z,7.32
2022-10-15T14:34:28.513Z,10.02
2022-10-15T14:36:55.454Z,7.53
2022-10-15T14:39:34.597Z,5.38
2022-10-15T14:42:02.601Z,5.75
2022-10-15T14:44:47.482Z,3.95
2022-10-15T14:47:26.133Z,6.57
2022-10-15T14:49:59.962Z,5.65
2022-10-15T14:52:30.291Z,5.50
2022-10-15T14:55:02.520Z,5.35
2022-10-15T14:57:36.082Z,7.53
2022-10-15T15:00:06.086Z,6.50
2022-10-15T15:02:32.860Z,4.55
2022-10-15T15:05:11.607Z,4.10
2022-10-15T15:07:39.055Z,4.53
2022-10-15T15:10:07.595Z,5.28
2022-10-15T15:12:35.005Z,4.50
2022-10-15T15:15:02.103Z,3.38
2022-10-15T15:17:30.181Z,3.22
2022-10-15T15:19:58.103Z,3.78
2022-10-15T15:22:31.782Z,2.70
2022-10-15T15:25:00.767Z,6.25
2022-10-15T15:27:37.051Z,3.75
2022-10-15T15:30:06.631Z,5.15
2022-10-15T15:32:33.653Z,8.27
2022-10-15T15:35:00.395Z,3.53
2022-10-15T15:37:29.281Z,3.10
2022-10-15T15:39:57.790Z,1.83
2022-10-15T15:42:25.651Z,6.63
2022-10-15T15:44:52.553Z,3.45
2022-10-15T15:49:45.793Z,3.75
2022-10-15T15:52:13.956Z,7.13
2022-10-15T15:54:41.043Z,3.10
2022-10-15T15:57:07.828Z,4.15
2022-10-15T15:59:35.020Z,6.95
2022-10-15T16:02:01.865Z,6.47
2022-10-15T16:04:28.547Z,8.15
2022-10-15T16:09:22.983Z,5.63
2022-10-15T16:11:50.466Z,3.30
2022-10-15T16:14:17.262Z,3.90
2022-10-15T16:19:14.063Z,4.05
2022-10-15T16:21:41.024Z,4.88
2022-10-15T16:24:07.909Z,3.10
2022-10-15T16:26:34.562Z,5.20
2022-10-15T16:29:01.251Z,6.43
2022-10-15T16:31:36.356Z,4.88
2022-10-15T16:34:04.598Z,3.85
2022-10-15T16:36:31.875Z,2.80
2022-10-15T16:38:58.922Z,4.30
2022-10-15T16:41:25.787Z,4.15
2022-10-15T16:43:52.423Z,6.25
2022-10-15T16:46:20.172Z,8.07
2022-10-15T16:48:53.084Z,3.30
2022-10-15T16:51:20.176Z,3.92
2022-10-15T16:53:47.864Z,4.15
2022-10-15T16:56:20.540Z,6.35
2022-10-15T16:58:47.803Z,3.88
2022-10-15T17:01:17.156Z,7.47
2022-10-15T17:03:45.351Z,4.30
2022-10-15T17:06:15.395Z,8.85
2022-10-15T17:08:47.522Z,5.00
2022-10-15T17:11:20.618Z,11.18
2022-10-15T17:13:48.902Z,4.13
2022-10-15T17:16:21.884Z,2.70
2022-10-15T17:18:48.928Z,7.30
2022-10-15T17:21:18.464Z,8.88
2022-10-15T17:23:45.613Z,8.18
2022-10-15T17:26:17.021Z,8.80
2022-10-15T17:28:45.132Z,3.25
2022-10-15T17:31:20.353Z,10.82
2022-10-15T17:33:47.520Z,6.78
2022-10-15T17:36:16.804Z,10.68
2022-10-15T17:38:44.753Z,8.80
2022-10-15T17:41:17.716Z,5.93
2022-10-15T17:43:44.961Z,6.55
2022-10-15T17:46:15.808Z,3.13
2022-10-15T17:48:43.076Z,6.85
2022-10-15T17:51:18.045Z,8.35
2022-10-15T17:53:45.556Z,7.28
2022-10-15T17:56:15.517Z,8.45
2022-10-15T17:58:43.107Z,6.32
2022-10-15T18:01:27.895Z,6.18
2022-10-15T18:04:04.314Z,6.53
2022-10-15T18:06:31.209Z,6.97
2022-10-15T18:11:35.415Z,7.13
2022-10-15T18:14:03.013Z,6.80
2022-10-15T18:16:30.124Z,8.88
2022-10-15T18:18:56.884Z,7.80
2022-10-15T18:21:25.211Z,9.50
2022-10-15T18:23:51.863Z,11.65
2022-10-15T18:26:21.820Z,6.30
2022-10-15T18:28:50.749Z,7.50
2022-10-15T18:31:17.802Z,7.53
2022-10-15T18:33:47.163Z,5.50
2022-10-15T18:36:19.984Z,5.07
2022-10-15T18:38:46.861Z,8.68
2022-10-15T18:43:41.731Z,7.80
2022-10-15T18:48:37.058Z,7.32
2022-10-15T18:51:08.895Z,7.47
2022-10-15T18:53:37.048Z,4.88
2022-10-15T18:56:05.699Z,6.45
2022-10-15T18:58:33.093Z,7.07
2022-10-15T19:01:20.910Z,8.05
2022-10-15T19:03:52.457Z,6.10
2022-10-15T19:06:22.442Z,5.65
2022-10-15T19:08:50.264Z,8.13
2022-10-15T19:11:17.446Z,7.07
2022-10-15T19:13:44.147Z,7.22
2022-10-15T19:16:11.869Z,8.25
2022-10-15T19:18:40.284Z,3.70
2022-10-15T19:23:35.712Z,5.32
2022-10-15T19:26:06.079Z,7.18
2022-10-15T19:28:33.320Z,5.45
2022-10-15T19:31:02.811Z,5.40
2022-10-15T19:33:34.278Z,6.13
2022-10-15T19:36:01.666Z,11.98
2022-10-15T19:38:28.563Z,6.13
2022-10-15T19:43:23.166Z,6.40
2022-10-15T19:45:50.040Z,9.07
2022-10-15T19:48:18.957Z,8.93
2022-10-15T19:50:47.249Z,5.93
2022-10-15T19:53:16.439Z,8.93
2022-10-15T19:55:54.385Z,5.97
2022-10-15T19:58:21.574Z,8.13
2022-10-15T20:00:49.211Z,8.02
2022-10-15T20:03:16.309Z,6.78
2022-10-15T20:05:44.577Z,10.98
2022-10-15T20:08:11.990Z,7.45
2022-10-15T20:10:44.422Z,6.25
2022-10-15T20:13:11.877Z,6.00
2022-10-15T20:15:42.761Z,8.82
2022-10-15T20:18:09.558Z,4.78
2022-10-15T20:20:37.782Z,7.97
2022-10-15T20:23:04.747Z,8.40
2022-10-15T20:25:32.193Z,5.32
2022-10-15T20:27:59.177Z,6.30
2022-10-15T20:30:25.976Z,4.15
2022-10-15T20:35:20.244Z,6.00
2022-10-15T20:37:47.120Z,8.63
2022-10-15T20:40:15.081Z,4.43
2022-10-15T20:42:41.801Z,9.45
2022-10-15T20:45:11.375Z,7.82
2022-10-15T20:47:41.996Z,6.00
2022-10-15T20:50:14.905Z,7.45
2022-10-15T20:52:42.544Z,7.88
2022-10-15T20:55:10.653Z,7.50
2022-10-15T20:57:38.042Z,6.90
2022-10-15T21:00:06.691Z,9.77
2022-10-15T21:02:33.597Z,8.57
2022-10-15T21:07:26.904Z,5.55
2022-10-15T21:09:53.969Z,5.40
2022-10-15T21:12:21.424Z,7.22
2022-10-15T21:14:48.300Z,7.30
2022-10-15T21:19:42.020Z,8.63
2022-10-15T21:22:08.793Z,7.10
2022-10-15T21:24:36.399Z,6.78
2022-10-15T21:27:03.120Z,9.73
2022-10-15T21:29:30.092Z,6.00
2022-10-15T21:34:27.582Z,8.48
2022-10-15T21:36:55.244Z,8.65
2022-10-15T21:39:22.655Z,8.52
2022-10-15T21:41:49.301Z,8.10
2022-10-15T21:44:16.185Z,9.95
2022-10-15T21:49:10.431Z,8.98
2022-10-15T21:51:37.942Z,6.45
2022-10-15T21:54:06.132Z,7.35
2022-10-15T21:56:33.618Z,6.28
2022-10-15T21:59:00.834Z,8.65
2022-10-15T22:01:31.093Z,5.90
2022-10-15T22:04:00.465Z,9.55
2022-10-15T22:06:27.488Z,8.73
2022-10-15T22:08:54.259Z,7.75
2022-10-15T22:11:24.416Z,10.23
2022-10-15T22:13:57.200Z,7.82
2022-10-15T22:16:25.547Z,6.40
2022-10-15T22:18:53.006Z,8.10
2022-10-15T22:21:22.471Z,6.53
2022-10-15T22:23:52.252Z,5.75
2022-10-15T22:26:21.467Z,5.35
2022-10-15T22:28:48.668Z,6.45
2022-10-15T22:31:17.100Z,6.55
2022-10-15T22:33:44.729Z,5.13
2022-10-15T22:36:17.316Z,5.30
2022-10-15T22:38:47.116Z,8.43
2022-10-15T22:41:15.093Z,9.73
2022-10-15T22:43:42.140Z,3.72
2022-10-15T22:46:09.200Z,6.95
2022-10-15T22:48:37.562Z,4.13
2022-10-15T22:51:07.105Z,8.63
2022-10-15T22:53:34.274Z,10.63
2022-10-15T22:56:07.367Z,8.48
2022-10-15T22:58:35.214Z,5.70
2022-10-15T23:01:15.932Z,8.40
2022-10-15T23:03:44.920Z,5.07
2022-10-15T23:06:12.116Z,6.15
2022-10-15T23:08:39.069Z,7.57
2022-10-15T23:13:56.470Z,4.82
2022-10-15T23:16:26.449Z,7.50
2022-10-15T23:18:58.137Z,8.00
2022-10-15T23:21:34.093Z,7.18
2022-10-15T23:24:01.808Z,6.18
2022-10-15T23:28:58.183Z,6.05
2022-10-15T23:31:28.576Z,5.38
2022-10-15T23:33:57.053Z,8.70
2022-10-15T23:36:25.472Z,5.25
2022-10-15T23:38:54.910Z,3.67
2022-10-15T23:41:22.087Z,4.13
2022-10-15T23:43:48.768Z,5.30
2022-10-15T23:46:16.078Z,4.70
2022-10-15T23:48:43.325Z,8.57
2022-10-15T23:51:24.658Z,8.93
2022-10-15T23:53:52.207Z,5.03
2022-10-15T23:56:19.244Z,6.00
2022-10-15T23:58:50.874Z,6.07
